Time;durP1;ratioP1;P1;durP2;ratioP2;P2;SDS_P1;SDS_P2;PMS_P1;PMS_P2;Temp;Humidity;BMP_temperature;BMP_pressure;BME280_temperature;BME280_humidity;BME280_pressure;Samples;Min_cycle;Max_cycle;Signal;HPM_P1;HPM_P2
2021/05/19 00:01:43;;;;;;;0.30;0.20;;;;;;;10.71;100.00;100235.88;5052513;28;20522;-53
2021/05/19 00:04:10;;;;;;;0.30;0.20;;;;;;;10.79;100.00;100236.50;5052698;28;20443;-53
2021/05/19 00:06:37;;;;;;;0.30;0.20;;;;;;;10.77;100.00;100234.81;5052590;28;20457;-53
2021/05/19 00:09:07;;;;;;;0.30;0.20;;;;;;;10.68;100.00;100228.84;5052249;28;20481;-53
2021/05/19 00:11:35;;;;;;;0.30;0.20;;;;;;;10.78;100.00;100232.13;5052656;28;20446;-53
2021/05/19 00:14:03;;;;;;;0.30;0.20;;;;;;;10.65;100.00;100233.41;5052347;28;20447;-53
2021/05/19 00:16:30;;;;;;;0.30;0.20;;;;;;;10.85;100.00;100228.38;5052320;28;20454;-52
2021/05/19 00:18:56;;;;;;;0.30;0.20;;;;;;;11.02;100.00;100232.28;5052096;28;20470;-51
2021/05/19 00:21:23;;;;;;;0.30;0.20;;;;;;;11.32;100.00;100230.44;5052341;28;20948;-52
2021/05/19 00:23:50;;;;;;;0.30;0.20;;;;;;;11.46;100.00;100218.41;5051494;28;20451;-52
2021/05/19 00:26:17;;;;;;;0.30;0.20;;;;;;;11.42;100.00;100223.91;5048326;28;20446;-53
2021/05/19 00:28:49;;;;;;;0.30;0.20;;;;;;;11.47;100.00;100222.81;5053027;28;20471;-54
2021/05/19 00:31:18;;;;;;;0.30;0.20;;;;;;;11.38;100.00;100227.59;5052381;28;20478;-53
2021/05/19 00:33:45;;;;;;;0.30;0.20;;;;;;;11.06;100.00;100224.16;5052410;28;20982;-54
2021/05/19 00:36:12;;;;;;;0.30;0.20;;;;;;;10.96;100.00;100225.34;5052429;28;20524;-53
2021/05/19 00:38:39;;;;;;;0.30;0.20;;;;;;;10.81;100.00;100232.00;5052203;28;20497;-53
2021/05/19 00:41:09;;;;;;;0.30;0.20;;;;;;;10.60;100.00;100230.03;5052331;28;20501;-53
2021/05/19 00:43:36;;;;;;;0.30;0.20;;;;;;;10.52;100.00;100224.91;5051596;28;20496;-53
2021/05/19 00:46:04;;;;;;;0.30;0.20;;;;;;;10.34;100.00;100228.97;5054138;28;20501;-53
2021/05/19 00:48:30;;;;;;;0.30;0.20;;;;;;;10.16;100.00;100232.13;5054842;28;20585;-53
2021/05/19 00:50:57;;;;;;;0.30;0.20;;;;;;;9.93;100.00;100227.44;5056284;28;20494;-53
2021/05/19 00:53:24;;;;;;;0.83;0.83;;;;;;;10.03;100.00;100236.03;5055856;28;20512;-53
2021/05/19 00:55:51;;;;;;;0.30;0.20;;;;;;;9.74;100.00;100231.50;5056305;28;20503;-53
2021/05/19 00:58:18;;;;;;;0.30;0.20;;;;;;;9.63;100.00;100229.13;5055662;28;20474;-53
2021/05/19 01:00:44;;;;;;;0.30;0.20;;;;;;;9.65;100.00;100235.25;5056214;28;20451;-53
2021/05/19 01:03:11;;;;;;;0.30;0.20;;;;;;;9.98;100.00;100229.97;5055604;28;20957;-53
2021/05/19 01:05:43;;;;;;;0.30;0.20;;;;;;;9.93;100.00;100232.75;5055810;28;20932;-53
2021/05/19 01:10:55;;;;;;;0.30;0.20;;;;;;;9.73;100.00;100237.69;5055385;28;20482;-53
2021/05/19 01:13:22;;;;;;;0.30;0.20;;;;;;;9.54;100.00;100232.00;5055649;28;21009;-53
2021/05/19 01:15:49;;;;;;;0.30;0.20;;;;;;;9.34;100.00;100243.13;5055593;28;20446;-53
2021/05/19 01:18:16;;;;;;;0.30;0.20;;;;;;;9.29;100.00;100234.38;5055510;28;20894;-52
2021/05/19 01:20:43;;;;;;;0.30;0.20;;;;;;;9.11;100.00;100234.84;5055741;28;20464;-53
2021/05/19 01:23:09;;;;;;;0.30;0.20;;;;;;;9.12;100.00;100239.22;5055474;28;20838;-53
2021/05/19 01:25:37;;;;;;;0.30;0.20;;;;;;;9.21;100.00;100241.69;5054392;28;20928;-53
2021/05/19 01:28:05;;;;;;;0.30;0.20;;;;;;;9.27;100.00;100235.34;5055519;28;20470;-53
2021/05/19 01:30:33;;;;;;;0.30;0.20;;;;;;;9.25;100.00;100237.16;5055264;28;20478;-53
2021/05/19 01:33:00;;;;;;;0.30;0.20;;;;;;;9.17;100.00;100237.34;5055142;28;20454;-53
2021/05/19 01:35:31;;;;;;;0.30;0.20;;;;;;;9.05;100.00;100227.91;5055180;28;20796;-53
2021/05/19 01:37:58;;;;;;;0.30;0.20;;;;;;;9.15;100.00;100236.50;5055060;28;20493;-53
2021/05/19 01:40:24;;;;;;;0.30;0.20;;;;;;;8.90;100.00;100245.00;5055428;28;20454;-53
2021/05/19 01:42:51;;;;;;;0.30;0.20;;;;;;;8.86;100.00;100242.47;5054970;28;20944;-53
2021/05/19 01:45:23;;;;;;;0.30;0.20;;;;;;;8.86;100.00;100245.13;5055127;28;20443;-53
2021/05/19 01:47:52;;;;;;;0.30;0.20;;;;;;;8.81;100.00;100247.03;5055030;28;20524;-53
2021/05/19 01:50:22;;;;;;;0.30;0.20;;;;;;;8.72;100.00;100244.56;5055088;28;20544;-53
2021/05/19 01:52:53;;;;;;;0.30;0.20;;;;;;;8.49;100.00;100237.09;5055149;28;20451;-53
2021/05/19 01:55:20;;;;;;;0.30;0.20;;;;;;;8.34;100.00;100240.94;5054854;28;20438;-53
2021/05/19 01:57:49;;;;;;;0.30;0.20;;;;;;;8.29;100.00;100234.84;5053375;28;20482;-53
2021/05/19 02:00:17;;;;;;;0.30;0.20;;;;;;;8.31;100.00;100235.66;5054886;28;20501;-53
2021/05/19 02:02:44;;;;;;;0.30;0.20;;;;;;;8.25;100.00;100235.81;5054834;28;20455;-52
2021/05/19 02:05:14;;;;;;;0.30;0.20;;;;;;;8.32;100.00;100240.06;5054977;28;20459;-53
2021/05/19 02:07:41;;;;;;;1.67;0.70;;;;;;;8.23;100.00;100243.78;5054539;28;20470;-53
2021/05/19 02:10:10;;;;;;;0.30;0.20;;;;;;;8.18;100.00;100235.03;5054665;28;20909;-52
2021/05/19 02:12:37;;;;;;;0.30;0.20;;;;;;;8.22;100.00;100244.69;5054726;28;20450;-52
2021/05/19 02:15:05;;;;;;;0.30;0.20;;;;;;;8.27;100.00;100234.00;5054549;28;20504;-53
2021/05/19 02:17:31;;;;;;;0.30;0.20;;;;;;;8.26;100.00;100242.84;5053819;28;20528;-53
2021/05/19 02:20:09;;;;;;;0.30;0.20;;;;;;;8.09;100.00;100247.59;5054428;28;20447;-53
2021/05/19 02:22:37;;;;;;;0.30;0.20;;;;;;;7.98;100.00;100246.03;5054487;28;20481;-53
2021/05/19 02:25:05;;;;;;;0.30;0.20;;;;;;;8.12;100.00;100250.19;5053987;28;20940;-53
2021/05/19 02:27:32;;;;;;;0.30;0.20;;;;;;;7.84;100.00;100253.34;5054221;28;20475;-53
2021/05/19 02:29:59;;;;;;;0.30;0.20;;;;;;;7.88;100.00;100256.81;5054305;28;20493;-54
2021/05/19 02:32:27;;;;;;;0.30;0.20;;;;;;;7.92;100.00;100259.34;5054390;28;20947;-54
2021/05/19 02:34:54;;;;;;;0.30;0.20;;;;;;;7.82;100.00;100263.09;5054282;28;20520;-54
2021/05/19 02:37:20;;;;;;;0.30;0.20;;;;;;;7.83;100.00;100264.84;5053914;28;20983;-54
2021/05/19 02:39:47;;;;;;;0.30;0.20;;;;;;;7.76;100.00;100264.97;5054407;28;20451;-53
2021/05/19 02:42:14;;;;;;;0.30;0.20;;;;;;;7.88;100.00;100262.09;5054160;28;20481;-53
2021/05/19 02:44:41;;;;;;;0.30;0.20;;;;;;;7.65;100.00;100262.50;5052784;28;20591;-54
2021/05/19 02:47:08;;;;;;;0.30;0.20;;;;;;;7.55;100.00;100253.84;5053911;28;20473;-54
2021/05/19 02:49:35;;;;;;;0.30;0.20;;;;;;;7.65;100.00;100254.56;5054028;28;20508;-54
2021/05/19 02:52:02;;;;;;;0.30;0.20;;;;;;;7.67;100.00;100253.63;5053394;28;20451;-53
2021/05/19 02:54:28;;;;;;;0.30;0.20;;;;;;;7.61;100.00;100253.75;5054014;28;20504;-53
2021/05/19 02:56:55;;;;;;;0.30;0.20;;;;;;;7.76;100.00;100247.31;5053718;28;20508;-53
2021/05/19 02:59:21;;;;;;;0.30;0.20;;;;;;;7.59;100.00;100252.03;5053496;28;20504;-53
2021/05/19 03:01:48;;;;;;;0.30;0.20;;;;;;;7.79;100.00;100252.53;5053221;28;20451;-53
2021/05/19 03:04:15;;;;;;;0.30;0.20;;;;;;;7.82;100.00;100241.06;5053499;28;20481;-53
2021/05/19 03:06:41;;;;;;;0.30;0.20;;;;;;;7.81;100.00;100264.00;5053553;28;20509;-55
2021/05/19 03:09:08;;;;;;;0.30;0.20;;;;;;;7.74;100.00;100262.34;5053108;28;20467;-52
2021/05/19 03:11:35;;;;;;;0.30;0.20;;;;;;;7.73;100.00;100266.75;5053157;28;20521;-52
2021/05/19 03:14:03;;;;;;;0.30;0.20;;;;;;;7.83;100.00;100264.84;5053666;28;20455;-52
2021/05/19 03:16:31;;;;;;;0.30;0.20;;;;;;;7.77;100.00;100267.56;5053081;28;20460;-52
2021/05/19 03:18:58;;;;;;;0.30;0.20;;;;;;;7.67;100.00;100258.91;5052940;28;20822;-52
2021/05/19 03:21:25;;;;;;;1.80;1.80;;;;;;;7.66;100.00;100264.22;5053134;28;21001;-52
2021/05/19 03:23:51;;;;;;;0.30;0.20;;;;;;;7.70;100.00;100266.81;5053029;28;21006;-53
2021/05/19 03:26:19;;;;;;;0.30;0.20;;;;;;;7.95;100.00;100269.03;5053276;28;20455;-52
2021/05/19 03:28:45;;;;;;;0.30;0.20;;;;;;;7.76;100.00;100272.88;5052745;28;20517;-52
2021/05/19 03:31:12;;;;;;;0.30;0.20;;;;;;;7.91;100.00;100275.25;5053110;28;20486;-52
2021/05/19 03:33:39;;;;;;;0.40;0.40;;;;;;;7.74;100.00;100280.84;5052921;28;20952;-52
2021/05/19 03:36:07;;;;;;;0.30;0.20;;;;;;;7.87;100.00;100277.09;5053088;28;20442;-52
2021/05/19 03:38:36;;;;;;;0.30;0.20;;;;;;;7.77;100.00;100283.44;5052969;28;20528;-52
2021/05/19 03:41:04;;;;;;;0.30;0.20;;;;;;;7.63;100.00;100269.59;5052647;28;21025;-52
2021/05/19 03:43:32;;;;;;;0.30;0.20;;;;;;;7.96;100.00;100290.19;5053310;28;20927;-52
2021/05/19 03:45:59;;;;;;;0.30;0.20;;;;;;;8.10;100.00;100286.41;5053050;28;20489;-52
2021/05/19 03:48:26;;;;;;;0.30;0.20;;;;;;;7.99;100.00;100286.59;5052539;28;20885;-52
2021/05/19 03:50:53;;;;;;;0.30;0.20;;;;;;;8.02;100.00;100287.41;5052943;28;20544;-52
2021/05/19 03:53:20;;;;;;;0.30;0.20;;;;;;;7.91;100.00;100284.06;5052374;28;20497;-52
2021/05/19 03:55:47;;;;;;;0.30;0.20;;;;;;;8.02;100.00;100295.34;5053102;28;20462;-52
2021/05/19 03:58:14;;;;;;;0.40;0.30;;;;;;;7.96;100.00;100298.13;5052691;28;20483;-52
2021/05/19 04:00:42;;;;;;;0.30;0.20;;;;;;;8.09;100.00;100292.59;5053194;28;20454;-52
2021/05/19 04:03:09;;;;;;;0.30;0.20;;;;;;;8.01;100.00;100296.25;5052904;28;20454;-52
2021/05/19 04:05:37;;;;;;;0.30;0.20;;;;;;;7.90;100.00;100303.50;5052864;28;20447;-52
2021/05/19 04:08:06;;;;;;;0.30;0.20;;;;;;;8.11;100.00;100301.38;5052712;28;20462;-52
2021/05/19 04:10:34;;;;;;;0.30;0.20;;;;;;;8.26;100.00;100301.09;5049913;28;20536;-52
2021/05/19 04:13:04;;;;;;;0.30;0.20;;;;;;;8.42;100.00;100305.22;5052676;28;20512;-52
2021/05/19 04:15:33;;;;;;;0.30;0.20;;;;;;;8.39;100.00;100297.34;5052492;28;20451;-52
2021/05/19 04:18:00;;;;;;;0.30;0.20;;;;;;;8.39;100.00;100300.00;5052365;28;20528;-52
2021/05/19 04:20:27;;;;;;;0.30;0.20;;;;;;;8.41;100.00;100306.13;5051580;28;20504;-52
2021/05/19 04:22:54;;;;;;;0.30;0.20;;;;;;;8.51;100.00;100318.31;5052345;28;20483;-52
2021/05/19 04:25:21;;;;;;;0.30;0.20;;;;;;;8.49;100.00;100304.19;5052352;28;20933;-52
2021/05/19 04:27:48;;;;;;;0.30;0.20;;;;;;;8.47;100.00;100305.13;5050810;28;20489;-52
2021/05/19 04:32:42;;;;;;;0.30;0.20;;;;;;;8.60;100.00;100314.56;5024521;22;20509;-79
2021/05/19 04:35:09;;;;;;;0.30;0.20;;;;;;;8.80;100.00;100293.84;5016142;28;20472;-78
2021/05/19 04:37:36;;;;;;;0.30;0.20;;;;;;;8.82;100.00;100305.28;5017636;28;20448;-79
2021/05/19 04:40:05;;;;;;;0.30;0.20;;;;;;;8.87;100.00;100305.19;5015390;28;20441;-79
2021/05/19 04:42:32;;;;;;;0.60;0.57;;;;;;;9.08;100.00;100312.69;5016024;28;20499;-79
2021/05/19 04:44:59;;;;;;;0.30;0.20;;;;;;;9.10;100.00;100310.00;5059148;22;20506;-52
2021/05/19 04:47:25;;;;;;;0.30;0.20;;;;;;;9.21;100.00;100310.63;5040298;28;20886;-52
2021/05/19 04:49:52;;;;;;;0.30;0.20;;;;;;;9.31;100.00;100300.66;5052161;28;20512;-52
2021/05/19 04:52:19;;;;;;;0.30;0.20;;;;;;;9.27;100.00;100315.78;5051900;28;20498;-52
2021/05/19 04:54:46;;;;;;;0.30;0.20;;;;;;;9.39;100.00;100310.19;5044529;28;20475;-52
2021/05/19 04:57:12;;;;;;;0.47;0.47;;;;;;;9.37;100.00;100311.16;5051975;28;20860;-52
2021/05/19 04:59:39;;;;;;;1.13;1.13;;;;;;;9.38;100.00;100319.06;5051883;28;20536;-52
2021/05/19 05:02:06;;;;;;;0.30;0.20;;;;;;;9.35;100.00;100313.84;5051960;28;20450;-52
2021/05/19 05:04:32;;;;;;;0.30;0.20;;;;;;;9.32;100.00;100324.53;5051971;28;20873;-52
2021/05/19 05:07:01;;;;;;;0.30;0.20;;;;;;;9.41;100.00;100321.63;5051964;28;20471;-52
2021/05/19 05:09:28;;;;;;;0.30;0.20;;;;;;;9.56;100.00;100324.84;5051881;28;20462;-52
2021/05/19 05:11:54;;;;;;;0.30;0.20;;;;;;;9.62;100.00;100335.31;5051789;28;20491;-52
2021/05/19 05:14:21;;;;;;;0.40;0.40;;;;;;;9.59;100.00;100332.72;5051813;28;20450;-52
2021/05/19 05:16:49;;;;;;;0.30;0.20;;;;;;;9.44;100.00;100334.81;5051735;28;20473;-52
2021/05/19 05:19:16;;;;;;;0.30;0.20;;;;;;;9.65;100.00;100332.59;5051855;28;20553;-52
2021/05/19 05:21:43;;;;;;;0.30;0.20;;;;;;;10.13;100.00;100343.75;5051963;28;20451;-52
2021/05/19 05:24:09;;;;;;;0.40;0.30;;;;;;;10.33;100.00;100341.50;5033984;28;20447;-52
2021/05/19 05:26:36;;;;;;;0.30;0.20;;;;;;;10.48;100.00;100334.88;5051675;28;20466;-52
2021/05/19 05:29:03;;;;;;;0.30;0.20;;;;;;;10.30;100.00;100340.72;5051570;28;20455;-52
2021/05/19 05:31:30;;;;;;;0.30;0.20;;;;;;;10.18;100.00;100339.22;5052652;28;20493;-52
2021/05/19 05:33:57;;;;;;;0.30;0.20;;;;;;;10.35;100.00;100342.31;5055468;28;20828;-52
2021/05/19 05:36:23;;;;;;;0.30;0.20;;;;;;;10.67;100.00;100349.41;5037821;28;20473;-51
2021/05/19 05:38:50;;;;;;;0.30;0.20;;;;;;;10.59;100.00;100345.22;5055173;28;20935;-52
2021/05/19 05:41:17;;;;;;;0.30;0.20;;;;;;;10.61;100.00;100348.72;5055409;28;20860;-52
2021/05/19 05:43:47;;;;;;;0.30;0.20;;;;;;;10.94;100.00;100352.19;5054974;28;20458;-52
2021/05/19 05:46:14;;;;;;;0.30;0.20;;;;;;;11.48;100.00;100343.47;5043928;28;20477;-51
2021/05/19 05:48:42;;;;;;;0.30;0.20;;;;;;;11.13;100.00;100347.22;5041983;28;20537;-52
2021/05/19 05:51:09;;;;;;;0.30;0.20;;;;;;;10.95;100.00;100348.59;5054991;28;21025;-51
2021/05/19 05:53:36;;;;;;;0.30;0.20;;;;;;;11.58;100.00;100350.25;5054978;28;20867;-52
2021/05/19 05:56:03;;;;;;;0.30;0.20;;;;;;;11.93;100.00;100351.81;5048036;28;20479;-51
2021/05/19 05:58:30;;;;;;;0.30;0.20;;;;;;;12.18;99.96;100349.16;5054843;28;20469;-51
2021/05/19 06:00:56;;;;;;;0.30;0.20;;;;;;;12.44;99.21;100354.47;5055115;28;20455;-52
2021/05/19 06:03:23;;;;;;;0.30;0.20;;;;;;;12.92;98.97;100364.31;5054754;28;20492;-52
2021/05/19 06:05:50;;;;;;;0.30;0.20;;;;;;;12.39;97.99;100363.56;5054902;28;20561;-52
2021/05/19 06:08:16;;;;;;;0.30;0.20;;;;;;;12.91;98.38;100364.38;5041605;28;20466;-52
2021/05/19 06:10:43;;;;;;;0.30;0.20;;;;;;;13.39;97.38;100358.97;5054568;28;20454;-53
2021/05/19 06:13:10;;;;;;;0.53;0.53;;;;;;;13.38;94.71;100354.56;5054748;28;20608;-52
2021/05/19 06:15:36;;;;;;;0.30;0.20;;;;;;;13.58;95.14;100365.34;5036873;28;20477;-52
2021/05/19 06:18:03;;;;;;;0.40;0.30;;;;;;;13.59;94.13;100374.25;5054486;28;20446;-52
2021/05/19 06:20:30;;;;;;;0.30;0.20;;;;;;;13.95;93.51;100369.19;5054530;28;20482;-52
2021/05/19 06:22:57;;;;;;;0.30;0.20;;;;;;;13.95;94.04;100377.22;5054458;28;20454;-52
2021/05/19 06:25:23;;;;;;;0.30;0.20;;;;;;;14.20;94.88;100382.41;5045936;28;20490;-53
2021/05/19 06:27:50;;;;;;;0.33;0.30;;;;;;;14.44;90.96;100380.53;5042477;28;20447;-52
2021/05/19 06:30:17;;;;;;;9.73;2.40;;;;;;;14.39;90.87;100377.16;5054234;28;20490;-53
2021/05/19 06:32:43;;;;;;;0.30;0.20;;;;;;;14.16;91.81;100387.03;5054439;28;20569;-53
2021/05/19 06:35:10;;;;;;;0.30;0.20;;;;;;;14.82;89.56;100386.91;5054329;28;20446;-53
2021/05/19 06:37:37;;;;;;;0.30;0.20;;;;;;;14.63;89.28;100385.97;5054252;28;20506;-53
2021/05/19 06:40:05;;;;;;;0.30;0.20;;;;;;;14.16;90.09;100376.34;5054056;28;20534;-53
2021/05/19 06:42:32;;;;;;;0.30;0.20;;;;;;;13.98;92.41;100382.44;5054290;28;20447;-53
2021/05/19 06:44:58;;;;;;;0.30;0.20;;;;;;;13.72;93.45;100383.50;5052734;28;20545;-53
2021/05/19 06:47:25;;;;;;;0.30;0.20;;;;;;;14.33;93.68;100380.09;5046085;28;20817;-53
2021/05/19 06:49:53;;;;;;;0.30;0.20;;;;;;;14.23;93.65;100387.63;5048814;28;20863;-53
2021/05/19 06:52:20;;;;;;;0.30;0.20;;;;;;;13.88;94.90;100386.44;5053930;28;20486;-53
2021/05/19 06:54:48;;;;;;;0.30;0.20;;;;;;;13.98;94.42;100393.16;5045768;28;20456;-52
2021/05/19 06:57:19;;;;;;;0.30;0.20;;;;;;;13.94;94.78;100380.81;5053794;28;20526;-53
2021/05/19 06:59:46;;;;;;;0.30;0.20;;;;;;;13.93;95.45;100387.97;5053844;28;20458;-53
2021/05/19 07:02:12;;;;;;;0.30;0.20;;;;;;;13.34;95.29;100390.34;5036303;28;20477;-53
2021/05/19 07:04:39;;;;;;;0.30;0.20;;;;;;;13.56;95.49;100390.34;5053593;28;20477;-53
2021/05/19 07:07:06;;;;;;;0.30;0.20;;;;;;;13.79;94.10;100387.66;5053563;28;20466;-53
2021/05/19 07:09:32;;;;;;;0.30;0.20;;;;;;;13.36;94.89;100385.81;5053742;28;20461;-53
2021/05/19 07:11:59;;;;;;;0.30;0.20;;;;;;;13.61;94.72;100389.25;5053682;28;20498;-53
2021/05/19 07:14:27;;;;;;;0.30;0.20;;;;;;;14.19;93.90;100391.38;5053316;28;20956;-53
2021/05/19 07:16:54;;;;;;;0.30;0.20;;;;;;;13.21;96.51;100386.41;5053605;28;20971;-53
2021/05/19 07:19:22;;;;;;;0.30;0.20;;;;;;;13.55;96.25;100384.16;5053245;28;20446;-52
2021/05/19 07:21:50;;;;;;;0.30;0.20;;;;;;;13.46;96.96;100381.00;5053311;28;20447;-53
2021/05/19 07:24:17;;;;;;;0.30;0.20;;;;;;;13.76;95.54;100382.44;5052140;28;20453;-53
2021/05/19 07:26:46;;;;;;;0.30;0.20;;;;;;;13.74;95.96;100381.63;5053393;28;20474;-53
2021/05/19 07:29:14;;;;;;;0.30;0.20;;;;;;;14.19;94.44;100384.22;5053239;28;20451;-53
2021/05/19 07:31:41;;;;;;;0.30;0.20;;;;;;;14.22;93.66;100385.88;5053088;28;20498;-53
2021/05/19 07:34:09;;;;;;;0.30;0.20;;;;;;;14.30;92.67;100388.25;5035494;28;20525;-53
2021/05/19 07:36:35;;;;;;;0.30;0.20;;;;;;;13.81;93.37;100384.91;5053308;28;20475;-53
2021/05/19 07:39:04;;;;;;;0.30;0.20;;;;;;;13.82;94.97;100389.31;5053117;28;20481;-53
2021/05/19 07:41:30;;;;;;;0.30;0.20;;;;;;;14.04;95.14;100390.19;5053141;28;20451;-53
2021/05/19 07:43:57;;;;;;;0.30;0.20;;;;;;;14.04;94.56;100389.34;5052793;28;20471;-53
2021/05/19 07:46:24;;;;;;;0.30;0.20;;;;;;;14.03;93.28;100384.94;5052819;28;20467;-53
2021/05/19 07:48:49;;;;;;;0.30;0.20;;;;;;;13.78;92.86;100391.25;5039542;28;20446;-53
2021/05/19 07:51:16;;;;;;;0.30;0.20;;;;;;;14.25;92.03;100393.78;5052717;28;20282;-53
2021/05/19 07:53:42;;;;;;;0.30;0.20;;;;;;;15.07;91.25;100398.22;5033091;28;20729;-53
2021/05/19 07:56:28;;;;;;;0.30;0.20;;;;;;;15.18;89.03;100389.69;5045652;28;20454;-53
2021/05/19 07:59:04;;;;;;;0.30;0.20;;;;;;;15.33;88.82;100385.44;5033202;28;20436;-53
2021/05/19 08:04:04;;;;;;;0.37;0.20;;;;;;;15.44;88.76;100382.28;5052833;28;20528;-53
2021/05/19 08:06:30;;;;;;;0.30;0.20;;;;;;;15.59;84.99;100387.81;5052781;28;20459;-53
2021/05/19 08:08:55;;;;;;;0.40;0.20;;;;;;;15.59;85.20;100390.47;5052788;28;20534;-53
2021/05/19 08:11:21;;;;;;;0.30;0.20;;;;;;;16.16;82.86;100391.25;5052541;28;20255;-53
2021/05/19 08:13:47;;;;;;;0.30;0.20;;;;;;;15.70;84.81;100382.81;5052514;28;20206;-53
2021/05/19 08:16:13;;;;;;;0.30;0.20;;;;;;;16.33;84.13;100389.56;5052601;28;20696;-53
2021/05/19 08:18:39;;;;;;;0.30;0.20;;;;;;;16.14;82.21;100387.78;5052593;28;20669;-54
2021/05/19 08:21:06;;;;;;;0.37;0.20;;;;;;;15.68;84.05;100379.34;5052441;28;20455;-53
2021/05/19 08:23:34;;;;;;;0.40;0.20;;;;;;;16.14;84.86;100376.19;5052426;28;20537;-53
2021/05/19 08:26:02;;;;;;;0.40;0.20;;;;;;;16.25;83.88;100376.53;5052405;28;21479;-53
2021/05/19 08:28:31;;;;;;;0.40;0.20;;;;;;;16.87;81.06;100376.00;5052277;28;20474;-53
2021/05/19 08:30:59;;;;;;;0.30;0.20;;;;;;;16.59;82.16;100381.06;5039376;28;20454;-53
2021/05/19 08:33:42;;;;;;;0.40;0.20;;;;;;;16.80;81.98;100376.41;5052263;28;20486;-53
2021/05/19 08:36:09;;;;;;;0.40;0.20;;;;;;;16.60;81.11;100377.41;5052318;28;20502;-53
2021/05/19 08:38:38;;;;;;;2.00;1.30;;;;;;;17.31;81.26;100375.41;5052122;28;20454;-53
2021/05/19 08:41:06;;;;;;;0.40;0.20;;;;;;;17.65;78.02;100376.19;5052641;28;20505;-53
2021/05/19 08:43:32;;;;;;;0.40;0.20;;;;;;;16.71;79.98;100375.03;5052060;28;20461;-53
2021/05/19 08:46:03;;;;;;;0.40;0.20;;;;;;;17.22;80.34;100366.97;5051776;28;20820;-53
2021/05/19 08:48:31;;;;;;;0.40;0.20;;;;;;;17.74;77.73;100367.66;5038748;28;20446;-53
2021/05/19 08:50:58;;;;;;;0.40;0.20;;;;;;;17.94;76.79;100363.81;5052008;28;20508;-53
2021/05/19 08:53:26;;;;;;;0.40;0.20;;;;;;;17.55;77.89;100372.31;5051832;28;20987;-53
2021/05/19 08:55:54;;;;;;;0.40;0.20;;;;;;;16.97;78.18;100367.44;5045268;28;20524;-53
2021/05/19 08:58:21;;;;;;;0.40;0.20;;;;;;;17.32;77.18;100376.28;5052019;28;20446;-53
2021/05/19 09:00:51;;;;;;;0.40;0.20;;;;;;;16.87;79.04;100367.94;5052029;28;20447;-53
2021/05/19 09:03:18;;;;;;;0.40;0.20;;;;;;;16.80;78.78;100366.53;5051992;28;20868;-53
2021/05/19 09:05:50;;;;;;;0.40;0.30;;;;;;;17.22;74.59;100366.97;5051859;28;20823;-53
2021/05/19 09:08:19;;;;;;;0.40;0.20;;;;;;;16.96;69.31;100363.00;5056050;28;20454;-53
2021/05/19 09:11:10;;;;;;;0.40;0.20;;;;;;;16.40;67.80;100356.09;5055979;28;20802;-53
2021/05/19 09:13:37;;;;;;;0.40;0.20;;;;;;;16.64;69.19;100362.88;5055813;28;20455;-53
2021/05/19 09:16:05;;;;;;;0.40;0.20;;;;;;;16.84;69.68;100361.84;5055498;28;20873;-53
2021/05/19 09:18:47;;;;;;;0.40;0.20;;;;;;;17.21;67.77;100358.06;5055614;28;20455;-53
2021/05/19 09:21:42;;;;;;;0.40;0.20;;;;;;;17.18;66.17;100355.53;5055864;28;20507;-53
2021/05/19 09:24:19;;;;;;;0.40;0.20;;;;;;;17.51;65.38;100360.84;5055432;28;20446;-53
2021/05/19 09:26:58;;;;;;;0.40;0.20;;;;;;;18.20;63.80;100356.91;5055490;28;20516;-53
2021/05/19 09:29:27;;;;;;;0.40;0.20;;;;;;;17.26;63.13;100364.03;5055717;28;20496;-53
2021/05/19 09:31:59;;;;;;;0.40;0.20;;;;;;;16.96;64.72;100358.50;5055655;28;20513;-53
2021/05/19 09:34:30;;;;;;;0.40;0.20;;;;;;;17.64;64.15;100352.97;5055648;28;20451;-53
2021/05/19 09:37:27;;;;;;;0.40;0.20;;;;;;;17.71;63.03;100349.03;5055397;28;20474;-53
2021/05/19 09:39:54;;;;;;;0.40;0.20;;;;;;;17.92;62.84;100352.28;5054591;28;20487;-53
2021/05/19 09:42:41;;;;;;;0.40;0.20;;;;;;;18.11;64.21;100344.88;5055438;28;20818;-53
2021/05/19 09:45:18;;;;;;;0.40;0.20;;;;;;;18.27;64.25;100347.53;5037845;28;20543;-53
2021/05/19 09:47:46;;;;;;;0.40;0.20;;;;;;;17.80;60.36;100350.28;5037398;28;20466;-53
2021/05/19 09:50:15;;;;;;;0.40;0.20;;;;;;;17.98;60.60;100335.81;5055342;28;20454;-53
2021/05/19 09:53:03;;;;;;;0.40;0.20;;;;;;;18.11;61.07;100338.66;5055177;28;20501;-53
2021/05/19 09:55:30;;;;;;;0.40;0.20;;;;;;;18.17;57.72;100336.44;5047608;28;20512;-53
2021/05/19 09:57:56;;;;;;;0.40;0.20;;;;;;;18.13;59.01;100329.53;5054917;28;20451;-53
2021/05/19 10:00:26;;;;;;;0.40;0.20;;;;;;;18.38;59.17;100336.13;5055311;28;20447;-53
2021/05/19 10:02:55;;;;;;;0.40;0.20;;;;;;;18.03;58.12;100339.94;5055006;28;20492;-53
2021/05/19 10:07:50;;;;;;;0.40;0.20;;;;;;;18.62;56.24;100326.53;5054668;28;20459;-54
2021/05/19 10:10:17;;;;;;;0.40;0.20;;;;;;;18.76;53.90;100325.72;5054832;28;20455;-53
2021/05/19 10:12:46;;;;;;;0.40;0.20;;;;;;;18.85;54.04;100317.09;5054445;28;21052;-53
2021/05/19 10:15:18;;;;;;;0.40;0.20;;;;;;;18.76;56.05;100317.66;5054699;28;20970;-53
2021/05/19 10:17:48;;;;;;;0.40;0.20;;;;;;;18.86;56.06;100318.81;5053800;28;20882;-53
2021/05/19 10:20:21;;;;;;;0.40;0.20;;;;;;;18.56;55.06;100317.03;5054498;28;20447;-53
2021/05/19 10:22:49;;;;;;;0.40;0.20;;;;;;;18.57;55.38;100316.06;5054325;28;20477;-53
2021/05/19 10:25:34;;;;;;;0.40;0.20;;;;;;;19.11;52.44;100315.47;5053180;28;20504;-53
2021/05/19 10:28:05;;;;;;;0.40;0.20;;;;;;;18.86;51.71;100305.34;5054771;28;20418;-53
2021/05/19 10:30:47;;;;;;;0.40;0.30;;;;;;;18.62;53.48;100303.19;5054446;28;20865;-53
2021/05/19 10:33:29;;;;;;;0.40;0.20;;;;;;;18.86;54.28;100302.66;5054240;28;20994;-53
2021/05/19 10:35:57;;;;;;;0.40;0.20;;;;;;;18.88;52.91;100298.91;5054368;28;20528;-59
2021/05/19 10:38:33;;;;;;;0.40;0.20;;;;;;;18.92;52.83;100302.28;5054405;28;20455;-54
2021/05/19 10:41:05;;;;;;;0.40;0.20;;;;;;;19.59;54.27;100289.00;5054367;28;20454;-53
2021/05/19 10:43:53;;;;;;;0.40;0.20;;;;;;;19.59;54.91;100294.41;5054417;28;20437;-53
2021/05/19 10:47:13;;;;;;;0.40;0.20;;;;;;;19.15;50.95;100290.91;5054332;28;20443;-53
2021/05/19 10:49:43;;;;;;;0.40;0.20;;;;;;;18.66;54.36;100287.75;5047250;28;20525;-52
2021/05/19 10:52:22;;;;;;;0.40;0.20;;;;;;;18.70;54.34;100285.72;5053840;28;20486;-52
2021/05/19 10:58:35;;;;;;;0.40;0.20;;;;;;;18.54;56.62;100280.41;5053681;28;20443;-52
2021/05/19 11:01:05;;;;;;;0.40;0.20;;;;;;;18.27;55.13;100274.88;5053983;28;20828;-52
2021/05/19 11:03:32;;;;;;;0.40;0.20;;;;;;;17.89;56.00;100274.47;5034083;28;20444;-52
2021/05/19 11:06:00;;;;;;;0.40;0.20;;;;;;;18.68;54.88;100263.44;5047118;28;20973;-52
2021/05/19 11:08:28;;;;;;;0.40;0.20;;;;;;;18.85;55.79;100261.41;5053480;28;20870;-53
2021/05/19 11:11:21;;;;;;;0.40;0.20;;;;;;;19.53;54.86;100255.19;5053381;28;20878;-52
2021/05/19 11:17:13;;;;;;;0.40;0.20;;;;;;;18.88;55.61;100266.56;4980338;28;20522;-52
2021/05/19 11:19:40;;;;;;;0.40;0.20;;;;;;;18.93;54.91;100259.09;5027189;28;20982;-52
2021/05/19 11:22:13;;;;;;;0.40;0.30;;;;;;;18.77;55.71;100255.59;5046666;28;20446;-51
2021/05/19 11:24:53;;;;;;;0.40;0.20;;;;;;;18.76;56.50;100261.97;5040726;28;20455;-52
2021/05/19 11:27:26;;;;;;;0.40;0.20;;;;;;;18.39;56.98;100268.75;5053130;28;20493;-52
2021/05/19 11:29:54;;;;;;;0.40;0.20;;;;;;;18.62;57.90;100257.41;5053245;28;20450;-52
2021/05/19 11:32:26;;;;;;;0.40;0.20;;;;;;;17.67;62.31;100275.69;5053133;28;20534;-52
2021/05/19 11:34:53;;;;;;;0.40;0.20;;;;;;;17.56;72.33;100272.78;5053001;28;20504;-52
2021/05/19 11:37:21;;;;;;;0.40;0.20;;;;;;;17.48;77.71;100281.25;5052635;28;20478;-52
2021/05/19 11:39:54;;;;;;;0.40;0.20;;;;;;;17.56;77.20;100266.53;5052855;28;20884;-52
2021/05/19 11:42:25;;;;;;;0.40;0.20;;;;;;;17.19;79.84;100263.25;5052743;28;20458;-52
2021/05/19 11:44:58;;;;;;;0.40;0.20;;;;;;;17.61;76.36;100259.06;5052711;28;20454;-52
2021/05/19 11:47:31;;;;;;;0.40;0.20;;;;;;;17.71;75.66;100255.78;5044793;28;20534;-52
2021/05/19 11:50:09;;;;;;;0.40;0.20;;;;;;;18.14;71.01;100255.91;5030484;28;20450;-52